sensor_id;sensor_type;location;lat;lon;timestamp;P1;durP1;ratioP1;P2;durP2;ratioP2
55216;SDS011;41086;46.736;15.666;2023-02-03T00:00:49;9.27;;;5.45;;
55216;SDS011;41086;46.736;15.666;2023-02-03T00:03:16;11.85;;;6.32;;
55216;SDS011;41086;46.736;15.666;2023-02-03T00:05:43;6.57;;;4.70;;
55216;SDS011;41086;46.736;15.666;2023-02-03T00:08:10;7.25;;;4.65;;
55216;SDS011;41086;46.736;15.666;2023-02-03T00:10:37;8.55;;;5.55;;
55216;SDS011;41086;46.736;15.666;2023-02-03T00:13:05;8.32;;;5.47;;
55216;SDS011;41086;46.736;15.666;2023-02-03T00:15:33;6.75;;;4.57;;
55216;SDS011;41086;46.736;15.666;2023-02-03T00:18:00;6.38;;;4.18;;
55216;SDS011;41086;46.736;15.666;2023-02-03T00:20:27;7.28;;;4.75;;
55216;SDS011;41086;46.736;15.666;2023-02-03T00:22:54;6.50;;;4.28;;
55216;SDS011;41086;46.736;15.666;2023-02-03T00:25:28;4.38;;;2.67;;
55216;SDS011;41086;46.736;15.666;2023-02-03T00:27:55;9.18;;;5.13;;
55216;SDS011;41086;46.736;15.666;2023-02-03T00:30:22;7.72;;;4.88;;
55216;SDS011;41086;46.736;15.666;2023-02-03T00:32:50;9.05;;;5.90;;
55216;SDS011;41086;46.736;15.666;2023-02-03T00:35:19;9.18;;;6.35;;
55216;SDS011;41086;46.736;15.666;2023-02-03T00:37:55;12.57;;;7.18;;
55216;SDS011;41086;46.736;15.666;2023-02-03T00:40:23;11.25;;;7.50;;
55216;SDS011;41086;46.736;15.666;2023-02-03T00:42:52;16.13;;;7.55;;
55216;SDS011;41086;46.736;15.666;2023-02-03T00:45:20;14.05;;;7.35;;
55216;SDS011;41086;46.736;15.666;2023-02-03T00:47:48;13.32;;;8.73;;
55216;SDS011;41086;46.736;15.666;2023-02-03T00:50:15;13.82;;;8.07;;
55216;SDS011;41086;46.736;15.666;2023-02-03T00:52:42;13.23;;;8.32;;
55216;SDS011;41086;46.736;15.666;2023-02-03T00:55:09;15.65;;;9.50;;
55216;SDS011;41086;46.736;15.666;2023-02-03T00:57:35;16.95;;;9.68;;
55216;SDS011;41086;46.736;15.666;2023-02-03T01:00:02;16.45;;;10.38;;
55216;SDS011;41086;46.736;15.666;2023-02-03T01:02:30;22.48;;;13.32;;
55216;SDS011;41086;46.736;15.666;2023-02-03T01:04:56;19.10;;;10.65;;
55216;SDS011;41086;46.736;15.666;2023-02-03T01:07:24;25.65;;;12.05;;
55216;SDS011;41086;46.736;15.666;2023-02-03T01:09:51;21.35;;;11.00;;
55216;SDS011;41086;46.736;15.666;2023-02-03T01:12:18;22.70;;;10.95;;
55216;SDS011;41086;46.736;15.666;2023-02-03T01:14:45;21.85;;;12.57;;
55216;SDS011;41086;46.736;15.666;2023-02-03T01:17:11;25.10;;;12.07;;
55216;SDS011;41086;46.736;15.666;2023-02-03T01:19:38;21.80;;;12.68;;
55216;SDS011;41086;46.736;15.666;2023-02-03T01:22:05;23.48;;;13.07;;
55216;SDS011;41086;46.736;15.666;2023-02-03T01:24:32;31.73;;;14.18;;
55216;SDS011;41086;46.736;15.666;2023-02-03T01:26:58;22.45;;;12.27;;
55216;SDS011;41086;46.736;15.666;2023-02-03T01:29:26;23.65;;;13.15;;
55216;SDS011;41086;46.736;15.666;2023-02-03T01:34:20;28.38;;;12.32;;
55216;SDS011;41086;46.736;15.666;2023-02-03T01:36:47;24.75;;;13.30;;
55216;SDS011;41086;46.736;15.666;2023-02-03T01:39:14;24.85;;;13.55;;
55216;SDS011;41086;46.736;15.666;2023-02-03T01:41:44;22.60;;;12.57;;
55216;SDS011;41086;46.736;15.666;2023-02-03T01:47:16;19.30;;;11.52;;
55216;SDS011;41086;46.736;15.666;2023-02-03T01:50:16;22.05;;;12.40;;
55216;SDS011;41086;46.736;15.666;2023-02-03T01:52:45;24.10;;;13.45;;
55216;SDS011;41086;46.736;15.666;2023-02-03T01:55:16;22.08;;;12.85;;
55216;SDS011;41086;46.736;15.666;2023-02-03T02:00:24;30.83;;;14.80;;
55216;SDS011;41086;46.736;15.666;2023-02-03T02:02:53;21.00;;;13.07;;
55216;SDS011;41086;46.736;15.666;2023-02-03T02:05:26;25.40;;;13.40;;
55216;SDS011;41086;46.736;15.666;2023-02-03T02:07:58;23.02;;;12.43;;
55216;SDS011;41086;46.736;15.666;2023-02-03T02:10:27;23.27;;;12.38;;
55216;SDS011;41086;46.736;15.666;2023-02-03T02:12:56;22.10;;;11.55;;
55216;SDS011;41086;46.736;15.666;2023-02-03T02:15:26;33.47;;;13.85;;
55216;SDS011;41086;46.736;15.666;2023-02-03T02:18:23;21.27;;;12.07;;
55216;SDS011;41086;46.736;15.666;2023-02-03T02:21:11;17.25;;;10.05;;
55216;SDS011;41086;46.736;15.666;2023-02-03T02:26:53;60.80;;;16.88;;
55216;SDS011;41086;46.736;15.666;2023-02-03T02:32:33;19.02;;;10.82;;
55216;SDS011;41086;46.736;15.666;2023-02-03T02:40:54;23.00;;;10.65;;
55216;SDS011;41086;46.736;15.666;2023-02-03T02:43:40;57.45;;;15.95;;
55216;SDS011;41086;46.736;15.666;2023-02-03T02:46:27;38.20;;;16.20;;
55216;SDS011;41086;46.736;15.666;2023-02-03T02:49:05;28.63;;;14.48;;
55216;SDS011;41086;46.736;15.666;2023-02-03T02:51:38;86.28;;;19.70;;
55216;SDS011;41086;46.736;15.666;2023-02-03T02:54:12;213.57;;;37.80;;
55216;SDS011;41086;46.736;15.666;2023-02-03T02:56:43;38.38;;;18.75;;
55216;SDS011;41086;46.736;15.666;2023-02-03T02:59:15;38.60;;;18.40;;
55216;SDS011;41086;46.736;15.666;2023-02-03T03:01:41;49.63;;;22.15;;
55216;SDS011;41086;46.736;15.666;2023-02-03T03:04:10;31.63;;;15.10;;
55216;SDS011;41086;46.736;15.666;2023-02-03T03:06:49;22.38;;;13.00;;
55216;SDS011;41086;46.736;15.666;2023-02-03T03:09:38;25.77;;;14.38;;
55216;SDS011;41086;46.736;15.666;2023-02-03T03:12:16;34.83;;;15.88;;
55216;SDS011;41086;46.736;15.666;2023-02-03T03:14:55;38.70;;;17.83;;
55216;SDS011;41086;46.736;15.666;2023-02-03T03:17:27;38.20;;;17.50;;
55216;SDS011;41086;46.736;15.666;2023-02-03T03:20:04;23.83;;;11.82;;
55216;SDS011;41086;46.736;15.666;2023-02-03T03:22:41;25.83;;;11.98;;
55216;SDS011;41086;46.736;15.666;2023-02-03T03:25:17;23.95;;;12.88;;
55216;SDS011;41086;46.736;15.666;2023-02-03T03:27:57;26.98;;;14.30;;
55216;SDS011;41086;46.736;15.666;2023-02-03T03:30:34;25.67;;;11.90;;
55216;SDS011;41086;46.736;15.666;2023-02-03T03:33:04;20.88;;;12.02;;
55216;SDS011;41086;46.736;15.666;2023-02-03T03:35:36;23.48;;;11.70;;
55216;SDS011;41086;46.736;15.666;2023-02-03T03:38:11;29.67;;;13.27;;
55216;SDS011;41086;46.736;15.666;2023-02-03T03:40:47;18.63;;;10.75;;
55216;SDS011;41086;46.736;15.666;2023-02-03T03:43:23;23.70;;;12.30;;
55216;SDS011;41086;46.736;15.666;2023-02-03T03:45:54;26.27;;;12.82;;
55216;SDS011;41086;46.736;15.666;2023-02-03T03:48:43;26.65;;;12.45;;
55216;SDS011;41086;46.736;15.666;2023-02-03T03:51:28;21.58;;;11.48;;
55216;SDS011;41086;46.736;15.666;2023-02-03T03:53:58;25.70;;;15.73;;
55216;SDS011;41086;46.736;15.666;2023-02-03T03:56:31;25.98;;;15.10;;
55216;SDS011;41086;46.736;15.666;2023-02-03T03:59:03;27.27;;;13.38;;
55216;SDS011;41086;46.736;15.666;2023-02-03T04:01:32;29.27;;;13.73;;
55216;SDS011;41086;46.736;15.666;2023-02-03T04:04:01;22.75;;;12.35;;
55216;SDS011;41086;46.736;15.666;2023-02-03T04:06:31;23.27;;;11.27;;
55216;SDS011;41086;46.736;15.666;2023-02-03T04:08:57;21.73;;;11.43;;
55216;SDS011;41086;46.736;15.666;2023-02-03T04:11:24;21.40;;;11.65;;
55216;SDS011;41086;46.736;15.666;2023-02-03T04:14:10;22.85;;;11.32;;
55216;SDS011;41086;46.736;15.666;2023-02-03T04:16:36;25.58;;;12.07;;
55216;SDS011;41086;46.736;15.666;2023-02-03T04:19:03;23.02;;;12.95;;
55216;SDS011;41086;46.736;15.666;2023-02-03T04:21:33;25.02;;;12.13;;
55216;SDS011;41086;46.736;15.666;2023-02-03T04:24:00;38.78;;;12.05;;
55216;SDS011;41086;46.736;15.666;2023-02-03T04:26:27;21.67;;;11.77;;
55216;SDS011;41086;46.736;15.666;2023-02-03T04:28:53;24.17;;;12.07;;
55216;SDS011;41086;46.736;15.666;2023-02-03T04:31:20;23.02;;;11.55;;
55216;SDS011;41086;46.736;15.666;2023-02-03T04:33:47;28.95;;;13.90;;
55216;SDS011;41086;46.736;15.666;2023-02-03T04:36:14;35.55;;;14.90;;
55216;SDS011;41086;46.736;15.666;2023-02-03T04:38:41;26.40;;;12.48;;
55216;SDS011;41086;46.736;15.666;2023-02-03T04:41:08;25.35;;;12.20;;
55216;SDS011;41086;46.736;15.666;2023-02-03T04:43:34;32.65;;;18.30;;
55216;SDS011;41086;46.736;15.666;2023-02-03T04:46:01;24.30;;;10.93;;
55216;SDS011;41086;46.736;15.666;2023-02-03T04:48:28;22.85;;;11.68;;
55216;SDS011;41086;46.736;15.666;2023-02-03T04:50:59;22.95;;;11.85;;
55216;SDS011;41086;46.736;15.666;2023-02-03T04:53:27;18.02;;;10.38;;
55216;SDS011;41086;46.736;15.666;2023-02-03T04:55:55;20.88;;;10.75;;
55216;SDS011;41086;46.736;15.666;2023-02-03T04:58:22;21.70;;;11.35;;
55216;SDS011;41086;46.736;15.666;2023-02-03T05:00:49;29.13;;;13.30;;
55216;SDS011;41086;46.736;15.666;2023-02-03T05:03:15;26.63;;;12.70;;
55216;SDS011;41086;46.736;15.666;2023-02-03T05:05:42;25.30;;;13.10;;
55216;SDS011;41086;46.736;15.666;2023-02-03T05:08:09;26.92;;;13.40;;
55216;SDS011;41086;46.736;15.666;2023-02-03T05:10:36;24.08;;;12.52;;
55216;SDS011;41086;46.736;15.666;2023-02-03T05:13:03;19.75;;;10.55;;
55216;SDS011;41086;46.736;15.666;2023-02-03T05:15:29;17.77;;;9.90;;
55216;SDS011;41086;46.736;15.666;2023-02-03T05:17:56;21.00;;;10.55;;
55216;SDS011;41086;46.736;15.666;2023-02-03T05:20:23;19.75;;;10.18;;
55216;SDS011;41086;46.736;15.666;2023-02-03T05:25:17;19.55;;;10.15;;
55216;SDS011;41086;46.736;15.666;2023-02-03T05:27:44;19.08;;;10.77;;
55216;SDS011;41086;46.736;15.666;2023-02-03T05:30:10;17.85;;;10.20;;
55216;SDS011;41086;46.736;15.666;2023-02-03T05:35:04;19.52;;;9.82;;
55216;SDS011;41086;46.736;15.666;2023-02-03T05:37:31;20.05;;;11.10;;
55216;SDS011;41086;46.736;15.666;2023-02-03T05:39:58;18.13;;;9.77;;
55216;SDS011;41086;46.736;15.666;2023-02-03T05:42:46;13.85;;;9.10;;
55216;SDS011;41086;46.736;15.666;2023-02-03T05:45:13;20.92;;;12.85;;
55216;SDS011;41086;46.736;15.666;2023-02-03T05:47:41;14.35;;;8.68;;
55216;SDS011;41086;46.736;15.666;2023-02-03T05:50:08;16.83;;;8.82;;
55216;SDS011;41086;46.736;15.666;2023-02-03T05:52:35;15.43;;;8.68;;
55216;SDS011;41086;46.736;15.666;2023-02-03T05:55:02;18.77;;;9.88;;
55216;SDS011;41086;46.736;15.666;2023-02-03T06:02:24;11.63;;;6.07;;
55216;SDS011;41086;46.736;15.666;2023-02-03T06:04:51;16.17;;;8.00;;
55216;SDS011;41086;46.736;15.666;2023-02-03T06:07:18;13.65;;;7.10;;
55216;SDS011;41086;46.736;15.666;2023-02-03T06:09:44;14.15;;;7.97;;
55216;SDS011;41086;46.736;15.666;2023-02-03T06:12:11;17.15;;;7.35;;
55216;SDS011;41086;46.736;15.666;2023-02-03T06:14:38;15.52;;;6.63;;
55216;SDS011;41086;46.736;15.666;2023-02-03T06:17:05;12.02;;;6.88;;
55216;SDS011;41086;46.736;15.666;2023-02-03T06:19:32;11.10;;;6.65;;
55216;SDS011;41086;46.736;15.666;2023-02-03T06:21:58;9.75;;;5.97;;
55216;SDS011;41086;46.736;15.666;2023-02-03T06:24:25;11.10;;;7.13;;
55216;SDS011;41086;46.736;15.666;2023-02-03T06:26:52;11.35;;;7.03;;
55216;SDS011;41086;46.736;15.666;2023-02-03T06:29:19;16.70;;;9.07;;
55216;SDS011;41086;46.736;15.666;2023-02-03T06:31:45;13.40;;;7.78;;
55216;SDS011;41086;46.736;15.666;2023-02-03T06:34:12;16.45;;;8.73;;
55216;SDS011;41086;46.736;15.666;2023-02-03T06:36:39;13.93;;;8.80;;
55216;SDS011;41086;46.736;15.666;2023-02-03T06:39:06;13.52;;;8.15;;
55216;SDS011;41086;46.736;15.666;2023-02-03T06:41:33;16.27;;;9.15;;
55216;SDS011;41086;46.736;15.666;2023-02-03T06:44:00;15.23;;;9.57;;
55216;SDS011;41086;46.736;15.666;2023-02-03T06:46:26;17.73;;;10.18;;
55216;SDS011;41086;46.736;15.666;2023-02-03T06:48:55;20.55;;;11.27;;
55216;SDS011;41086;46.736;15.666;2023-02-03T06:51:22;15.65;;;10.27;;
55216;SDS011;41086;46.736;15.666;2023-02-03T06:53:50;18.65;;;10.32;;
55216;SDS011;41086;46.736;15.666;2023-02-03T06:56:17;17.33;;;10.38;;
55216;SDS011;41086;46.736;15.666;2023-02-03T06:58:44;16.45;;;10.50;;
55216;SDS011;41086;46.736;15.666;2023-02-03T07:01:10;17.13;;;9.30;;
55216;SDS011;41086;46.736;15.666;2023-02-03T07:03:37;12.57;;;8.50;;
55216;SDS011;41086;46.736;15.666;2023-02-03T07:06:04;12.60;;;7.25;;
55216;SDS011;41086;46.736;15.666;2023-02-03T07:08:31;7.05;;;3.42;;
55216;SDS011;41086;46.736;15.666;2023-02-03T07:10:58;10.63;;;5.75;;
55216;SDS011;41086;46.736;15.666;2023-02-03T07:13:25;24.38;;;7.70;;
55216;SDS011;41086;46.736;15.666;2023-02-03T07:15:52;11.15;;;7.30;;
55216;SDS011;41086;46.736;15.666;2023-02-03T07:18:19;23.17;;;9.27;;
55216;SDS011;41086;46.736;15.666;2023-02-03T07:21:09;20.45;;;11.23;;
55216;SDS011;41086;46.736;15.666;2023-02-03T07:23:37;25.40;;;12.55;;
55216;SDS011;41086;46.736;15.666;2023-02-03T07:26:04;27.25;;;14.10;;
55216;SDS011;41086;46.736;15.666;2023-02-03T07:28:32;31.35;;;14.57;;
55216;SDS011;41086;46.736;15.666;2023-02-03T07:31:00;29.75;;;14.48;;
55216;SDS011;41086;46.736;15.666;2023-02-03T07:33:30;36.40;;;19.27;;
55216;SDS011;41086;46.736;15.666;2023-02-03T07:38:25;37.00;;;16.27;;
55216;SDS011;41086;46.736;15.666;2023-02-03T07:40:53;38.53;;;15.68;;
55216;SDS011;41086;46.736;15.666;2023-02-03T07:43:21;35.03;;;14.30;;
55216;SDS011;41086;46.736;15.666;2023-02-03T07:48:15;43.88;;;16.75;;
55216;SDS011;41086;46.736;15.666;2023-02-03T07:50:41;52.70;;;18.05;;
55216;SDS011;41086;46.736;15.666;2023-02-03T07:53:08;118.07;;;21.77;;
55216;SDS011;41086;46.736;15.666;2023-02-03T07:55:38;204.93;;;33.03;;
55216;SDS011;41086;46.736;15.666;2023-02-03T07:58:05;57.30;;;20.42;;
55216;SDS011;41086;46.736;15.666;2023-02-03T08:03:00;95.43;;;19.38;;
55216;SDS011;41086;46.736;15.666;2023-02-03T08:05:26;53.42;;;16.23;;
55216;SDS011;41086;46.736;15.666;2023-02-03T08:07:56;71.07;;;18.17;;
55216;SDS011;41086;46.736;15.666;2023-02-03T08:10:23;48.38;;;17.50;;
55216;SDS011;41086;46.736;15.666;2023-02-03T08:12:53;84.97;;;19.95;;
55216;SDS011;41086;46.736;15.666;2023-02-03T08:15:20;95.53;;;19.70;;
55216;SDS011;41086;46.736;15.666;2023-02-03T08:20:14;241.90;;;31.42;;
55216;SDS011;41086;46.736;15.666;2023-02-03T08:22:41;221.18;;;28.80;;
55216;SDS011;41086;46.736;15.666;2023-02-03T08:25:09;290.08;;;35.08;;
55216;SDS011;41086;46.736;15.666;2023-02-03T08:27:36;130.43;;;19.05;;
55216;SDS011;41086;46.736;15.666;2023-02-03T08:30:04;230.02;;;25.83;;
55216;SDS011;41086;46.736;15.666;2023-02-03T08:32:33;171.23;;;19.17;;
55216;SDS011;41086;46.736;15.666;2023-02-03T08:35:00;192.20;;;22.65;;
55216;SDS011;41086;46.736;15.666;2023-02-03T08:39:57;235.25;;;25.80;;
55216;SDS011;41086;46.736;15.666;2023-02-03T08:42:25;168.85;;;26.92;;
55216;SDS011;41086;46.736;15.666;2023-02-03T08:44:52;249.90;;;27.77;;
55216;SDS011;41086;46.736;15.666;2023-02-03T08:47:19;126.55;;;20.63;;
55216;SDS011;41086;46.736;15.666;2023-02-03T08:49:46;54.55;;;18.23;;
55216;SDS011;41086;46.736;15.666;2023-02-03T08:52:13;198.25;;;28.35;;
55216;SDS011;41086;46.736;15.666;2023-02-03T08:54:43;234.98;;;34.22;;
55216;SDS011;41086;46.736;15.666;2023-02-03T08:57:11;181.80;;;30.52;;
55216;SDS011;41086;46.736;15.666;2023-02-03T08:59:39;128.57;;;21.98;;
55216;SDS011;41086;46.736;15.666;2023-02-03T09:02:09;170.73;;;25.40;;
55216;SDS011;41086;46.736;15.666;2023-02-03T09:04:39;196.90;;;25.42;;
55216;SDS011;41086;46.736;15.666;2023-02-03T09:07:06;349.50;;;41.67;;
55216;SDS011;41086;46.736;15.666;2023-02-03T09:09:33;88.13;;;20.15;;
55216;SDS011;41086;46.736;15.666;2023-02-03T09:11:59;165.85;;;25.73;;
55216;SDS011;41086;46.736;15.666;2023-02-03T09:14:28;158.50;;;24.73;;
55216;SDS011;41086;46.736;15.666;2023-02-03T09:16:55;329.95;;;33.88;;
55216;SDS011;41086;46.736;15.666;2023-02-03T09:19:22;166.10;;;24.50;;
55216;SDS011;41086;46.736;15.666;2023-02-03T09:21:49;184.10;;;27.33;;
55216;SDS011;41086;46.736;15.666;2023-02-03T09:24:16;98.57;;;24.77;;
55216;SDS011;41086;46.736;15.666;2023-02-03T09:26:44;152.80;;;26.45;;
55216;SDS011;41086;46.736;15.666;2023-02-03T09:31:38;357.52;;;39.38;;
55216;SDS011;41086;46.736;15.666;2023-02-03T09:34:05;216.98;;;31.13;;
55216;SDS011;41086;46.736;15.666;2023-02-03T09:36:32;644.03;;;75.90;;
55216;SDS011;41086;46.736;15.666;2023-02-03T09:44:16;163.68;;;25.45;;
55216;SDS011;41086;46.736;15.666;2023-02-03T09:46:50;219.82;;;27.08;;
55216;SDS011;41086;46.736;15.666;2023-02-03T09:52:24;126.78;;;23.67;;
55216;SDS011;41086;46.736;15.666;2023-02-03T10:00:35;171.13;;;25.75;;
55216;SDS011;41086;46.736;15.666;2023-02-03T10:19:49;29.48;;;15.15;;
55216;SDS011;41086;46.736;15.666;2023-02-03T10:22:51;20.10;;;12.18;;
55216;SDS011;41086;46.736;15.666;2023-02-03T10:25:34;16.73;;;10.15;;
55216;SDS011;41086;46.736;15.666;2023-02-03T10:28:12;15.48;;;10.13;;
55216;SDS011;41086;46.736;15.666;2023-02-03T10:30:45;18.55;;;11.57;;
55216;SDS011;41086;46.736;15.666;2023-02-03T10:33:27;14.48;;;9.70;;
55216;SDS011;41086;46.736;15.666;2023-02-03T10:41:37;12.00;;;7.63;;
55216;SDS011;41086;46.736;15.666;2023-02-03T10:44:04;9.25;;;6.43;;
55216;SDS011;41086;46.736;15.666;2023-02-03T10:46:36;7.70;;;5.70;;
55216;SDS011;41086;46.736;15.666;2023-02-03T10:49:08;8.15;;;5.60;;
55216;SDS011;41086;46.736;15.666;2023-02-03T10:51:48;6.70;;;4.95;;
55216;SDS011;41086;46.736;15.666;2023-02-03T10:54:30;10.98;;;6.00;;
55216;SDS011;41086;46.736;15.666;2023-02-03T10:57:17;9.30;;;6.10;;
55216;SDS011;41086;46.736;15.666;2023-02-03T10:59:45;8.40;;;5.55;;
55216;SDS011;41086;46.736;15.666;2023-02-03T11:05:10;6.68;;;4.93;;
55216;SDS011;41086;46.736;15.666;2023-02-03T11:07:47;9.00;;;5.70;;
55216;SDS011;41086;46.736;15.666;2023-02-03T11:13:08;9.50;;;6.55;;
55216;SDS011;41086;46.736;15.666;2023-02-03T11:15:42;9.90;;;6.45;;
55216;SDS011;41086;46.736;15.666;2023-02-03T11:18:32;10.50;;;6.32;;
55216;SDS011;41086;46.736;15.666;2023-02-03T11:21:13;8.35;;;5.90;;
55216;SDS011;41086;46.736;15.666;2023-02-03T11:23:44;9.52;;;6.43;;
55216;SDS011;41086;46.736;15.666;2023-02-03T11:26:15;8.38;;;6.03;;
55216;SDS011;41086;46.736;15.666;2023-02-03T11:28:46;11.70;;;5.68;;
55216;SDS011;41086;46.736;15.666;2023-02-03T11:31:16;9.50;;;6.30;;
55216;SDS011;41086;46.736;15.666;2023-02-03T11:33:46;8.40;;;5.47;;
55216;SDS011;41086;46.736;15.666;2023-02-03T11:36:16;9.82;;;7.75;;
55216;SDS011;41086;46.736;15.666;2023-02-03T11:38:44;9.38;;;6.28;;
55216;SDS011;41086;46.736;15.666;2023-02-03T11:41:19;8.10;;;5.72;;
55216;SDS011;41086;46.736;15.666;2023-02-03T11:43:50;11.73;;;5.28;;
55216;SDS011;41086;46.736;15.666;2023-02-03T11:46:21;9.10;;;5.78;;
55216;SDS011;41086;46.736;15.666;2023-02-03T12:13:03;9.73;;;7.22;;
55216;SDS011;41086;46.736;15.666;2023-02-03T12:18:28;9.30;;;5.75;;
55216;SDS011;41086;46.736;15.666;2023-02-03T12:24:14;6.70;;;5.03;;
55216;SDS011;41086;46.736;15.666;2023-02-03T12:26:55;9.90;;;6.25;;
55216;SDS011;41086;46.736;15.666;2023-02-03T12:29:39;10.70;;;5.85;;
55216;SDS011;41086;46.736;15.666;2023-02-03T12:43:43;7.75;;;4.82;;
55216;SDS011;41086;46.736;15.666;2023-02-03T12:46:26;9.48;;;3.65;;
55216;SDS011;41086;46.736;15.666;2023-02-03T12:57:27;6.43;;;3.17;;
55216;SDS011;41086;46.736;15.666;2023-02-03T13:00:02;5.57;;;3.42;;
55216;SDS011;41086;46.736;15.666;2023-02-03T13:02:44;4.82;;;2.88;;
55216;SDS011;41086;46.736;15.666;2023-02-03T13:05:31;8.23;;;4.03;;
55216;SDS011;41086;46.736;15.666;2023-02-03T13:13:32;7.47;;;4.70;;
55216;SDS011;41086;46.736;15.666;2023-02-03T13:16:05;7.28;;;4.35;;
55216;SDS011;41086;46.736;15.666;2023-02-03T13:18:39;16.25;;;10.18;;
55216;SDS011;41086;46.736;15.666;2023-02-03T13:21:09;8.15;;;3.25;;
55216;SDS011;41086;46.736;15.666;2023-02-03T13:23:41;3.25;;;1.75;;
55216;SDS011;41086;46.736;15.666;2023-02-03T13:40:33;3.78;;;2.15;;
55216;SDS011;41086;46.736;15.666;2023-02-03T13:43:31;5.18;;;2.53;;
55216;SDS011;41086;46.736;15.666;2023-02-03T13:46:05;6.50;;;2.10;;
55216;SDS011;41086;46.736;15.666;2023-02-03T13:48:43;2.88;;;2.00;;
55216;SDS011;41086;46.736;15.666;2023-02-03T13:51:19;4.75;;;1.30;;
55216;SDS011;41086;46.736;15.666;2023-02-03T13:53:49;1.10;;;0.70;;
55216;SDS011;41086;46.736;15.666;2023-02-03T13:56:24;3.38;;;0.88;;
55216;SDS011;41086;46.736;15.666;2023-02-03T14:01:39;4.00;;;1.00;;
55216;SDS011;41086;46.736;15.666;2023-02-03T14:04:07;2.50;;;0.88;;
55216;SDS011;41086;46.736;15.666;2023-02-03T14:06:56;1.48;;;0.77;;
55216;SDS011;41086;46.736;15.666;2023-02-03T14:12:20;1.33;;;0.73;;
55216;SDS011;41086;46.736;15.666;2023-02-03T14:20:03;0.88;;;0.60;;
55216;SDS011;41086;46.736;15.666;2023-02-03T14:22:51;1.40;;;0.75;;
55216;SDS011;41086;46.736;15.666;2023-02-03T14:25:22;1.30;;;0.70;;
55216;SDS011;41086;46.736;15.666;2023-02-03T14:28:35;2.60;;;0.68;;
55216;SDS011;41086;46.736;15.666;2023-02-03T14:55:42;5.10;;;1.33;;
55216;SDS011;41086;46.736;15.666;2023-02-03T15:01:02;2.97;;;0.90;;
55216;SDS011;41086;46.736;15.666;2023-02-03T15:03:30;11.70;;;2.40;;
55216;SDS011;41086;46.736;15.666;2023-02-03T15:06:01;1.80;;;0.85;;
55216;SDS011;41086;46.736;15.666;2023-02-03T15:13:50;1.73;;;0.80;;
55216;SDS011;41086;46.736;15.666;2023-02-03T15:16:18;2.42;;;1.20;;
55216;SDS011;41086;46.736;15.666;2023-02-03T15:18:57;3.38;;;1.88;;
55216;SDS011;41086;46.736;15.666;2023-02-03T15:21:25;3.20;;;1.55;;
55216;SDS011;41086;46.736;15.666;2023-02-03T15:23:52;23.70;;;12.63;;
55216;SDS011;41086;46.736;15.666;2023-02-03T15:26:23;4.70;;;2.40;;
55216;SDS011;41086;46.736;15.666;2023-02-03T15:29:01;2.58;;;1.30;;
55216;SDS011;41086;46.736;15.666;2023-02-03T15:31:31;3.13;;;1.48;;
55216;SDS011;41086;46.736;15.666;2023-02-03T15:34:27;2.25;;;1.02;;
55216;SDS011;41086;46.736;15.666;2023-02-03T15:37:04;3.20;;;1.15;;
55216;SDS011;41086;46.736;15.666;2023-02-03T15:47:58;12.10;;;3.55;;
55216;SDS011;41086;46.736;15.666;2023-02-03T15:53:08;29.05;;;21.90;;
55216;SDS011;41086;46.736;15.666;2023-02-03T15:55:44;11.90;;;7.32;;
55216;SDS011;41086;46.736;15.666;2023-02-03T16:01:01;18.13;;;10.07;;
55216;SDS011;41086;46.736;15.666;2023-02-03T16:06:06;25.83;;;12.32;;
55216;SDS011;41086;46.736;15.666;2023-02-03T16:08:45;85.43;;;54.00;;
55216;SDS011;41086;46.736;15.666;2023-02-03T16:11:25;10.35;;;5.63;;
55216;SDS011;41086;46.736;15.666;2023-02-03T16:14:01;8.55;;;3.83;;
55216;SDS011;41086;46.736;15.666;2023-02-03T16:19:15;9.57;;;2.67;;
55216;SDS011;41086;46.736;15.666;2023-02-03T16:29:53;6.43;;;3.70;;
55216;SDS011;41086;46.736;15.666;2023-02-03T16:32:39;15.70;;;9.27;;
55216;SDS011;41086;46.736;15.666;2023-02-03T16:35:25;6.43;;;4.80;;
55216;SDS011;41086;46.736;15.666;2023-02-03T16:38:14;20.65;;;12.52;;
55216;SDS011;41086;46.736;15.666;2023-02-03T16:41:01;34.80;;;22.00;;
55216;SDS011;41086;46.736;15.666;2023-02-03T16:43:48;318.88;;;179.25;;
55216;SDS011;41086;46.736;15.666;2023-02-03T16:46:33;57.97;;;40.65;;
55216;SDS011;41086;46.736;15.666;2023-02-03T16:49:18;12.15;;;7.88;;
55216;SDS011;41086;46.736;15.666;2023-02-03T16:52:03;6.47;;;2.40;;
55216;SDS011;41086;46.736;15.666;2023-02-03T16:54:31;4.13;;;1.92;;
55216;SDS011;41086;46.736;15.666;2023-02-03T16:56:58;4.00;;;2.35;;
55216;SDS011;41086;46.736;15.666;2023-02-03T16:59:25;4.35;;;2.65;;
55216;SDS011;41086;46.736;15.666;2023-02-03T17:01:51;12.13;;;4.00;;
55216;SDS011;41086;46.736;15.666;2023-02-03T17:04:18;14.05;;;2.83;;
55216;SDS011;41086;46.736;15.666;2023-02-03T17:06:45;3.35;;;1.63;;
55216;SDS011;41086;46.736;15.666;2023-02-03T17:09:16;8.70;;;2.97;;
55216;SDS011;41086;46.736;15.666;2023-02-03T17:11:48;4.68;;;2.90;;
55216;SDS011;41086;46.736;15.666;2023-02-03T17:14:16;6.78;;;3.08;;
55216;SDS011;41086;46.736;15.666;2023-02-03T17:16:43;6.50;;;3.55;;
55216;SDS011;41086;46.736;15.666;2023-02-03T17:21:37;8.85;;;3.35;;
55216;SDS011;41086;46.736;15.666;2023-02-03T17:24:04;7.60;;;4.20;;
55216;SDS011;41086;46.736;15.666;2023-02-03T17:29:00;9.73;;;6.43;;
55216;SDS011;41086;46.736;15.666;2023-02-03T17:31:29;10.65;;;4.90;;
55216;SDS011;41086;46.736;15.666;2023-02-03T17:33:57;7.80;;;4.25;;
55216;SDS011;41086;46.736;15.666;2023-02-03T17:38:51;8.25;;;4.38;;
55216;SDS011;41086;46.736;15.666;2023-02-03T17:41:39;7.88;;;3.83;;
55216;SDS011;41086;46.736;15.666;2023-02-03T17:44:24;8.60;;;4.45;;
55216;SDS011;41086;46.736;15.666;2023-02-03T17:47:08;6.90;;;3.78;;
55216;SDS011;41086;46.736;15.666;2023-02-03T17:49:52;6.45;;;3.47;;
55216;SDS011;41086;46.736;15.666;2023-02-03T17:52:37;11.60;;;3.85;;
55216;SDS011;41086;46.736;15.666;2023-02-03T17:55:21;8.18;;;2.65;;
55216;SDS011;41086;46.736;15.666;2023-02-03T17:57:48;7.50;;;3.92;;
55216;SDS011;41086;46.736;15.666;2023-02-03T18:00:15;6.45;;;3.28;;
55216;SDS011;41086;46.736;15.666;2023-02-03T18:02:42;3.03;;;1.95;;
55216;SDS011;41086;46.736;15.666;2023-02-03T18:05:09;4.22;;;2.67;;
55216;SDS011;41086;46.736;15.666;2023-02-03T18:07:37;5.97;;;2.90;;
55216;SDS011;41086;46.736;15.666;2023-02-03T18:10:04;7.40;;;4.38;;
55216;SDS011;41086;46.736;15.666;2023-02-03T18:14:57;12.48;;;4.85;;
55216;SDS011;41086;46.736;15.666;2023-02-03T18:17:24;5.88;;;3.20;;
55216;SDS011;41086;46.736;15.666;2023-02-03T18:19:51;9.23;;;3.42;;
55216;SDS011;41086;46.736;15.666;2023-02-03T18:22:21;13.25;;;7.55;;
55216;SDS011;41086;46.736;15.666;2023-02-03T18:24:48;10.88;;;5.22;;
55216;SDS011;41086;46.736;15.666;2023-02-03T18:27:19;10.38;;;4.88;;
55216;SDS011;41086;46.736;15.666;2023-02-03T18:29:46;20.00;;;8.25;;
55216;SDS011;41086;46.736;15.666;2023-02-03T18:32:14;8.07;;;4.55;;
55216;SDS011;41086;46.736;15.666;2023-02-03T18:34:42;13.48;;;3.60;;
55216;SDS011;41086;46.736;15.666;2023-02-03T18:37:08;9.70;;;4.00;;
55216;SDS011;41086;46.736;15.666;2023-02-03T18:39:35;8.73;;;3.72;;